Time;durP1;ratioP1;P1;durP2;ratioP2;P2;SDS_P1;SDS_P2;PMS_P1;PMS_P2;Temp;Humidity;BMP_temperature;BMP_pressure;BME280_temperature;BME280_humidity;BME280_pressure;Samples;Min_cycle;Max_cycle;Signal;HPM_P1;HPM_P2
2023/09/20 00:00:50;;;;;;;0.93;0.75;;;14.00;90.90;14.00;100269.00;;;;4989960;28;92999;-68
2023/09/20 00:03:16;;;;;;;1.92;0.80;;;14.00;91.20;14.00;100265.00;;;;4972779;28;92796;-67
2023/09/20 00:05:43;;;;;;;3.20;1.38;;;14.00;91.60;14.00;100262.00;;;;4996670;28;122597;-68
2023/09/20 00:08:08;;;;;;;0.57;0.52;;;14.00;91.70;14.10;100275.00;;;;4992885;28;99643;-67
2023/09/20 00:10:34;;;;;;;0.88;0.88;;;14.00;91.70;14.00;100270.00;;;;4994986;27;111434;-67
2023/09/20 00:13:00;;;;;;;0.95;0.47;;;14.10;91.80;14.00;100268.00;;;;4992107;27;109040;-68
2023/09/20 00:15:25;;;;;;;1.05;0.85;;;14.00;91.90;14.00;100272.00;;;;4995904;28;122503;-68
2023/09/20 00:17:53;;;;;;;1.35;0.98;;;14.00;92.00;14.00;100272.00;;;;4975697;28;93240;-67
2023/09/20 00:20:19;;;;;;;1.67;1.10;;;14.00;92.20;14.00;100273.00;;;;4992656;27;94109;-67
2023/09/20 00:22:45;;;;;;;1.70;0.83;;;14.00;92.40;14.00;100266.00;;;;4991454;28;93204;-67
2023/09/20 00:25:13;;;;;;;0.80;0.73;;;14.00;92.60;14.00;100268.00;;;;4992592;28;104659;-67
2023/09/20 00:27:41;;;;;;;6.32;0.93;;;13.90;92.60;14.00;100269.00;;;;4997452;27;93273;-67
2023/09/20 00:30:14;;;;;;;0.77;0.77;;;13.90;92.70;14.00;100261.00;;;;4995021;28;94175;-67
2023/09/20 00:32:43;;;;;;;1.35;0.70;;;13.90;92.90;14.00;100275.00;;;;4989803;27;93239;-67
2023/09/20 00:35:11;;;;;;;1.13;0.60;;;13.90;93.10;14.00;100277.00;;;;4989532;28;122894;-68
2023/09/20 00:37:42;;;;;;;1.38;1.13;;;14.00;93.30;14.00;100270.00;;;;4994027;28;93028;-68
2023/09/20 00:40:15;;;;;;;1.17;0.80;;;13.90;93.40;13.90;100275.00;;;;4971619;28;93085;-67
2023/09/20 00:42:42;;;;;;;0.60;0.50;;;13.90;93.50;13.90;100280.00;;;;4994243;28;92912;-67
2023/09/20 00:45:09;;;;;;;1.00;1.00;;;13.90;93.60;13.90;100271.00;;;;4992694;28;94083;-68
2023/09/20 00:47:40;;;;;;;2.95;0.90;;;13.90;93.70;13.90;100270.00;;;;4994653;28;94942;-68
2023/09/20 00:50:10;;;;;;;1.40;0.82;;;13.80;93.70;13.80;100271.00;;;;4973850;28;93952;-68
2023/09/20 00:52:40;;;;;;;1.10;0.77;;;13.80;93.90;13.70;100270.00;;;;4992868;27;92914;-67
2023/09/20 00:55:20;;;;;;;1.98;1.17;;;13.70;93.90;13.70;100273.00;;;;4976588;28;95267;-67
2023/09/20 00:57:53;;;;;;;3.08;1.23;;;13.70;94.10;13.70;100273.00;;;;4974109;28;93995;-67
2023/09/20 01:00:29;;;;;;;0.77;0.77;;;13.60;94.40;13.60;100269.00;;;;4972094;28;93083;-68
2023/09/20 01:03:00;;;;;;;3.30;0.93;;;13.60;94.70;13.60;100277.00;;;;4999424;27;92104;-68
2023/09/20 01:05:25;;;;;;;1.30;0.80;;;13.60;94.90;13.50;100272.00;;;;4977660;28;93144;-67
2023/09/20 01:07:57;;;;;;;0.83;0.83;;;13.50;95.10;13.60;100277.00;;;;4990679;27;93394;-67
2023/09/20 01:10:24;;;;;;;1.20;0.83;;;13.50;95.50;13.60;100270.00;;;;4992256;27;94046;-67
2023/09/20 01:13:08;;;;;;;3.92;1.33;;;13.50;96.00;13.60;100270.00;;;;4995330;27;92704;-67
2023/09/20 01:15:36;;;;;;;0.77;0.70;;;13.60;96.40;13.60;100255.00;;;;4976274;28;94970;-68
2023/09/20 01:18:04;;;;;;;0.60;0.60;;;13.60;96.70;13.60;100260.00;;;;4993897;27;93246;-67
2023/09/20 01:20:33;;;;;;;0.77;0.67;;;13.60;96.90;13.70;100272.00;;;;4974138;28;92968;-68
2023/09/20 01:22:59;;;;;;;5.03;0.90;;;13.60;97.40;13.70;100261.00;;;;4993326;28;93047;-67
2023/09/20 01:25:36;;;;;;;1.88;0.85;;;13.70;97.20;13.70;100265.00;;;;4992566;27;93939;-68
2023/09/20 01:28:05;;;;;;;1.10;1.00;;;13.70;97.50;13.80;100255.00;;;;4992462;27;93814;-68
2023/09/20 01:30:34;;;;;;;0.87;0.40;;;13.70;97.50;13.80;100265.00;;;;4979975;28;93910;-67
2023/09/20 01:33:07;;;;;;;0.57;0.57;;;13.70;97.60;13.80;100264.00;;;;4994599;27;92878;-67
2023/09/20 01:35:34;;;;;;;1.13;1.02;;;13.80;98.00;13.80;100256.00;;;;4990306;27;95078;-67
2023/09/20 01:38:04;;;;;;;0.40;0.40;;;13.80;98.10;13.80;100251.00;;;;4990530;28;94707;-67
2023/09/20 01:40:33;;;;;;;3.10;1.10;;;13.80;98.00;13.80;100249.00;;;;4990667;28;93153;-67
2023/09/20 01:43:00;;;;;;;0.60;0.57;;;13.80;98.20;13.80;100244.00;;;;4990343;27;92914;-67
2023/09/20 01:45:26;;;;;;;0.98;0.95;;;13.70;98.20;13.80;100249.00;;;;4991397;27;92822;-67
2023/09/20 01:47:55;;;;;;;2.75;0.93;;;13.80;98.50;13.80;100247.00;;;;4991817;27;93792;-67
2023/09/20 01:50:24;;;;;;;1.57;0.80;;;13.80;98.60;13.80;100248.00;;;;4988251;27;93086;-67
2023/09/20 01:52:53;;;;;;;2.92;0.50;;;13.80;98.70;13.80;100252.00;;;;4978632;28;92641;-66
2023/09/20 01:55:21;;;;;;;0.50;0.50;;;13.80;98.80;13.80;100244.00;;;;4995837;27;108179;-67
2023/09/20 01:57:52;;;;;;;2.50;0.70;;;13.70;98.90;13.80;100251.00;;;;4990763;27;93167;-67
2023/09/20 02:00:25;;;;;;;3.80;0.87;;;13.70;98.90;13.70;100255.00;;;;4987905;27;93873;-67
2023/09/20 02:02:56;;;;;;;0.85;0.47;;;13.70;99.10;13.70;100249.00;;;;4996490;27;92779;-67
2023/09/20 02:05:25;;;;;;;1.10;0.93;;;13.70;99.20;13.70;100247.00;;;;4995256;27;93251;-67
2023/09/20 02:07:54;;;;;;;1.33;1.03;;;13.70;99.30;13.70;100251.00;;;;4978158;28;94982;-68
2023/09/20 02:10:21;;;;;;;2.37;0.60;;;13.70;99.60;13.70;100245.00;;;;4996096;27;93003;-68
2023/09/20 02:12:53;;;;;;;1.75;0.80;;;13.70;99.70;13.70;100247.00;;;;4994277;27;109088;-67
2023/09/20 02:15:20;;;;;;;0.93;0.87;;;13.70;99.90;13.70;100252.00;;;;4995364;27;93140;-66
2023/09/20 02:17:47;;;;;;;1.88;0.93;;;13.70;99.90;13.70;100245.00;;;;4995426;27;117235;-67
2023/09/20 02:20:21;;;;;;;0.75;0.75;;;13.70;99.90;13.70;100252.00;;;;4991905;27;93021;-67
2023/09/20 02:22:48;;;;;;;1.75;0.63;;;13.70;99.90;13.70;100257.00;;;;4976830;28;92831;-67
2023/09/20 02:25:20;;;;;;;1.17;0.77;;;13.60;99.90;13.60;100253.00;;;;4991676;28;95070;-66
2023/09/20 02:27:50;;;;;;;2.50;1.03;;;13.60;99.90;13.60;100258.00;;;;4992712;27;94947;-67
2023/09/20 02:30:24;;;;;;;1.37;1.00;;;13.60;99.90;13.60;100260.00;;;;4990654;27;92939;-67
2023/09/20 02:32:57;;;;;;;0.50;0.50;;;13.50;99.90;13.50;100250.00;;;;4992685;28;93111;-67
2023/09/20 02:35:25;;;;;;;0.60;0.53;;;13.50;99.90;13.50;100254.00;;;;4989074;27;94235;-67
2023/09/20 02:37:52;;;;;;;1.40;0.80;;;13.50;99.90;13.50;100258.00;;;;4981806;28;93900;-67
2023/09/20 02:40:18;;;;;;;1.50;1.37;;;13.40;99.90;13.40;100249.00;;;;4998147;28;92960;-67
2023/09/20 02:42:47;;;;;;;4.30;0.80;;;13.40;99.90;13.40;100252.00;;;;4995864;27;92100;-68
2023/09/20 02:45:15;;;;;;;1.70;0.73;;;13.40;99.90;13.30;100244.00;;;;4995928;27;93544;-67
2023/09/20 02:47:43;;;;;;;0.57;0.50;;;13.30;99.90;13.30;100255.00;;;;4993038;27;93242;-68
2023/09/20 02:50:12;;;;;;;0.80;0.50;;;13.30;99.90;13.30;100263.00;;;;4973286;28;93967;-67
2023/09/20 02:52:40;;;;;;;1.77;0.70;;;13.30;99.90;13.30;100250.00;;;;4993932;27;92975;-68
2023/09/20 02:55:13;;;;;;;1.10;1.00;;;13.30;99.90;13.30;100265.00;;;;4996691;28;93640;-67
2023/09/20 02:57:41;;;;;;;1.00;0.90;;;13.30;99.90;13.30;100264.00;;;;4993794;28;93857;-68
2023/09/20 03:00:15;;;;;;;1.07;0.73;;;13.30;99.90;13.30;100255.00;;;;4996711;27;92845;-66
2023/09/20 03:02:52;;;;;;;0.60;0.50;;;13.30;99.90;13.30;100258.00;;;;4997859;27;93143;-67
2023/09/20 03:05:24;;;;;;;1.50;0.67;;;13.20;99.90;13.30;100258.00;;;;4977136;28;94158;-66
2023/09/20 03:07:50;;;;;;;1.53;0.60;;;13.20;99.90;13.30;100259.00;;;;4995333;28;92195;-66
2023/09/20 03:10:24;;;;;;;1.50;0.93;;;13.20;99.90;13.30;100257.00;;;;4987184;27;99325;-66
2023/09/20 03:12:52;;;;;;;0.40;0.37;;;13.30;99.90;13.30;100252.00;;;;4992899;27;92797;-66
2023/09/20 03:15:21;;;;;;;0.87;0.83;;;13.20;99.90;13.30;100248.00;;;;4997066;27;94307;-66
2023/09/20 03:17:53;;;;;;;0.77;0.53;;;13.30;99.90;13.30;100252.00;;;;4996225;27;94507;-66
2023/09/20 03:20:23;;;;;;;1.37;1.03;;;12.60;99.90;13.30;100246.00;;;;4989987;28;103085;-66
2023/09/20 03:23:18;;;;;;;1.83;0.97;;;13.30;99.90;13.30;100257.00;;;;4996504;27;92966;-66
2023/09/20 03:25:43;;;;;;;1.27;0.60;;;13.30;99.90;13.30;100256.00;;;;4969982;27;93571;-66
2023/09/20 03:28:09;;;;;;;1.17;1.00;;;13.30;99.90;13.30;100260.00;;;;4995361;27;119887;-66
2023/09/20 03:30:39;;;;;;;1.10;0.50;;;13.30;99.90;13.40;100249.00;;;;4997938;27;92951;-68
2023/09/20 03:33:07;;;;;;;1.97;0.93;;;13.30;99.90;13.40;100258.00;;;;4997531;28;92245;-68
2023/09/20 03:35:33;;;;;;;0.80;0.68;;;13.40;99.90;13.40;100253.00;;;;4988609;28;93230;-67
2023/09/20 03:38:00;;;;;;;0.80;0.80;;;13.40;99.90;13.40;100255.00;;;;4994800;27;93232;-68
2023/09/20 03:40:28;;;;;;;1.27;1.17;;;13.40;99.90;13.40;100254.00;;;;4994464;28;94043;-68
2023/09/20 03:42:54;;;;;;;1.43;0.80;;;13.40;99.90;13.50;100251.00;;;;4995628;27;93180;-67
2023/09/20 03:45:20;;;;;;;0.70;0.70;;;13.40;99.90;13.50;100255.00;;;;4996978;27;94059;-68
2023/09/20 03:47:49;;;;;;;1.70;0.77;;;13.50;99.90;13.50;100247.00;;;;4998653;27;94419;-68
2023/09/20 03:50:18;;;;;;;1.17;0.77;;;13.50;99.90;13.60;100248.00;;;;4998045;27;94815;-67
2023/09/20 03:52:44;;;;;;;0.63;0.60;;;13.50;99.90;13.70;100255.00;;;;4997325;27;92820;-67
2023/09/20 03:55:10;;;;;;;0.50;0.40;;;13.60;99.90;13.70;100251.00;;;;4995643;28;111776;-67
2023/09/20 03:57:38;;;;;;;1.47;1.10;;;13.70;99.90;13.80;100252.00;;;;4996453;27;94959;-68
2023/09/20 04:00:11;;;;;;;0.97;0.63;;;13.70;99.90;13.80;100251.00;;;;4991711;27;93014;-66
2023/09/20 04:02:40;;;;;;;0.40;0.40;;;13.80;99.90;13.90;100250.00;;;;4995664;28;92777;-66
2023/09/20 04:05:10;;;;;;;1.13;0.90;;;13.80;99.90;13.90;100249.00;;;;4993926;27;94945;-67
2023/09/20 04:07:36;;;;;;;0.35;0.35;;;13.90;99.90;14.00;100244.00;;;;5000427;27;94917;-67
2023/09/20 04:10:03;;;;;;;0.80;0.80;;;13.90;99.90;14.10;100242.00;;;;4990619;27;92882;-66
2023/09/20 04:12:28;;;;;;;0.60;0.53;;;14.00;99.90;14.10;100247.00;;;;4993716;27;92852;-68
2023/09/20 04:14:54;;;;;;;0.98;0.60;;;14.00;99.90;14.10;100236.00;;;;4992946;27;121830;-67
2023/09/20 04:17:28;;;;;;;0.60;0.57;;;14.00;99.90;14.20;100245.00;;;;4993382;27;93567;-67
2023/09/20 04:19:54;;;;;;;0.68;0.65;;;14.10;99.90;14.20;100245.00;;;;4995489;27;94417;-67
2023/09/20 04:22:20;;;;;;;1.98;0.52;;;14.00;99.90;14.20;100246.00;;;;4995177;27;108133;-68
2023/09/20 04:24:45;;;;;;;0.60;0.60;;;14.20;99.90;14.30;100264.00;;;;4997311;27;122849;-67
2023/09/20 04:27:11;;;;;;;1.23;1.08;;;14.20;99.90;14.40;100251.00;;;;4994704;27;121350;-66
2023/09/20 04:29:37;;;;;;;1.98;0.50;;;14.30;99.90;14.40;100258.00;;;;4991830;27;110119;-67
2023/09/20 04:32:04;;;;;;;1.65;0.93;;;14.30;99.90;14.50;100265.00;;;;4992539;27;107274;-67
2023/09/20 04:34:30;;;;;;;2.88;0.82;;;14.40;99.90;14.60;100253.00;;;;4987360;27;93893;-67
2023/09/20 04:36:56;;;;;;;0.95;0.65;;;14.50;99.90;14.70;100265.00;;;;4984051;28;93705;-67
2023/09/20 04:39:27;;;;;;;0.85;0.50;;;14.60;99.90;14.80;100262.00;;;;4973729;28;92823;-68
2023/09/20 04:41:53;;;;;;;1.13;0.70;;;14.60;99.90;14.90;100267.00;;;;4986887;28;93208;-68
2023/09/20 04:44:20;;;;;;;0.57;0.57;;;14.80;99.90;14.90;100270.00;;;;4988457;27;93936;-68
2023/09/20 04:46:47;;;;;;;0.60;0.60;;;14.80;99.90;14.90;100274.00;;;;4991684;28;98306;-67
2023/09/20 04:49:14;;;;;;;0.47;0.32;;;14.80;99.90;15.00;100264.00;;;;4998519;28;93075;-67
2023/09/20 04:51:40;;;;;;;0.50;0.40;;;14.90;99.90;15.00;100271.00;;;;4988498;27;94447;-66
2023/09/20 04:54:09;;;;;;;2.35;0.82;;;14.90;99.90;15.00;100273.00;;;;4986812;27;94538;-67
2023/09/20 04:56:36;;;;;;;0.40;0.40;;;14.90;99.90;15.00;100282.00;;;;4985631;27;95128;-67
2023/09/20 04:59:08;;;;;;;0.60;0.50;;;14.90;99.90;15.00;100276.00;;;;4986021;27;93432;-67
2023/09/20 05:01:33;;;;;;;0.88;0.80;;;14.90;99.90;15.00;100282.00;;;;4994311;27;93114;-67
2023/09/20 05:03:59;;;;;;;0.38;0.38;;;14.90;99.90;15.00;100277.00;;;;4990179;27;122810;-66
2023/09/20 05:06:26;;;;;;;0.47;0.47;;;14.90;99.90;15.00;100286.00;;;;4985934;28;123651;-67
2023/09/20 05:08:51;;;;;;;0.70;0.70;;;14.90;99.90;15.00;100290.00;;;;4989848;28;92928;-67
2023/09/20 05:11:18;;;;;;;0.45;0.45;;;15.00;99.90;15.00;100287.00;;;;4993470;27;108380;-68
2023/09/20 05:13:44;;;;;;;0.77;0.70;;;15.00;99.90;15.10;100279.00;;;;4989709;27;94118;-67
2023/09/20 05:16:10;;;;;;;1.40;1.25;;;15.00;99.90;15.10;100286.00;;;;4988908;27;99758;-67
2023/09/20 05:18:36;;;;;;;0.85;0.50;;;15.00;99.90;15.10;100286.00;;;;4988146;27;106276;-68
2023/09/20 05:21:02;;;;;;;1.60;0.77;;;15.00;99.90;15.10;100294.00;;;;4981235;28;95315;-66
2023/09/20 05:23:28;;;;;;;0.90;0.80;;;15.00;99.90;15.10;100286.00;;;;4991298;27;93526;-66
2023/09/20 05:25:54;;;;;;;0.90;0.77;;;15.00;99.90;15.10;100286.00;;;;4983283;27;92919;-66
2023/09/20 05:28:20;;;;;;;3.00;1.10;;;15.10;99.90;15.10;100301.00;;;;4989765;28;93326;-66
2023/09/20 05:30:46;;;;;;;0.70;0.70;;;15.10;99.90;15.10;100295.00;;;;4989153;27;109013;-67
2023/09/20 05:33:12;;;;;;;0.70;0.70;;;15.00;99.90;15.10;100293.00;;;;4986451;27;104036;-67
2023/09/20 05:35:39;;;;;;;1.63;0.82;;;15.10;99.90;15.20;100291.00;;;;4990306;27;93935;-67
2023/09/20 05:38:07;;;;;;;1.40;1.13;;;15.10;99.90;15.20;100299.00;;;;4992137;27;93529;-69
2023/09/20 05:40:33;;;;;;;0.65;0.63;;;15.10;99.90;15.30;100303.00;;;;4990399;27;92870;-68
2023/09/20 05:42:59;;;;;;;2.50;0.75;;;15.20;99.90;15.30;100294.00;;;;4985251;27;94760;-66
2023/09/20 05:45:26;;;;;;;1.45;0.80;;;15.20;99.90;15.40;100307.00;;;;4985212;27;93927;-66
2023/09/20 05:47:54;;;;;;;1.55;0.57;;;15.30;99.90;15.60;100317.00;;;;4989617;27;93056;-67
2023/09/20 05:50:33;;;;;;;4.68;0.95;;;15.40;99.90;15.70;100318.00;;;;4989500;27;93098;-67
2023/09/20 05:52:59;;;;;;;1.60;0.52;;;15.60;99.90;15.90;100313.00;;;;4992650;27;93814;-66
2023/09/20 05:55:26;;;;;;;4.35;1.05;;;15.70;99.90;16.00;100310.00;;;;4974540;27;94920;-66
2023/09/20 05:57:53;;;;;;;0.75;0.60;;;15.90;99.90;16.20;100310.00;;;;4987135;27;92719;-66
2023/09/20 06:00:22;;;;;;;0.82;0.82;;;16.00;99.90;16.30;100309.00;;;;4988061;28;92225;-66
2023/09/20 06:02:49;;;;;;;5.05;0.77;;;16.20;99.90;16.50;100304.00;;;;4986663;28;93150;-67
2023/09/20 06:05:16;;;;;;;0.75;0.55;;;16.30;99.90;16.70;100294.00;;;;4981439;27;93134;-67
2023/09/20 06:07:44;;;;;;;1.77;0.80;;;16.50;99.90;16.90;100302.00;;;;4979186;28;93792;-67
2023/09/20 06:10:12;;;;;;;0.80;0.47;;;16.70;99.90;17.10;100301.00;;;;4968035;28;92966;-65
2023/09/20 06:12:38;;;;;;;0.77;0.70;;;16.90;99.90;17.20;100299.00;;;;4990249;27;93484;-67
2023/09/20 06:15:07;;;;;;;0.95;0.75;;;17.00;99.90;17.30;100309.00;;;;4990100;27;121821;-66
2023/09/20 06:17:33;;;;;;;3.30;0.98;;;17.20;99.90;17.40;100308.00;;;;4974990;27;93087;-67
2023/09/20 06:19:59;;;;;;;0.32;0.32;;;17.30;99.90;17.60;100312.00;;;;4992686;27;93210;-66
2023/09/20 06:22:29;;;;;;;0.73;0.73;;;17.40;99.90;17.70;100316.00;;;;4985393;27;107517;-67
2023/09/20 06:24:58;;;;;;;2.13;0.95;;;17.50;99.90;17.80;100319.00;;;;4993101;27;93981;-66
2023/09/20 06:27:30;;;;;;;0.55;0.50;;;17.70;99.90;18.00;100326.00;;;;4995412;27;92784;-66
2023/09/20 06:29:57;;;;;;;0.95;0.45;;;17.80;99.90;18.10;100323.00;;;;4981149;27;92952;-66
2023/09/20 06:32:23;;;;;;;1.90;0.75;;;17.90;99.70;18.20;100325.00;;;;4988169;27;116133;-67
2023/09/20 06:34:49;;;;;;;2.65;1.02;;;18.00;99.40;18.30;100326.00;;;;4990951;27;93204;-67
2023/09/20 06:37:15;;;;;;;7.72;1.83;;;18.10;99.00;18.40;100333.00;;;;4985561;27;110766;-68
2023/09/20 06:39:44;;;;;;;1.10;0.50;;;18.30;98.70;18.50;100332.00;;;;4963783;28;107903;-67
2023/09/20 06:42:10;;;;;;;0.50;0.50;;;18.40;98.50;18.80;100332.00;;;;4989809;27;93688;-65
2023/09/20 06:44:38;;;;;;;3.08;0.90;;;18.50;98.10;19.00;100334.00;;;;4995462;27;107798;-66
2023/09/20 06:47:06;;;;;;;0.38;0.38;;;18.80;97.70;19.20;100318.00;;;;4992690;27;93039;-67
2023/09/20 06:49:32;;;;;;;1.25;0.73;;;19.00;97.40;19.40;100335.00;;;;4984745;27;92149;-67
2023/09/20 06:52:01;;;;;;;1.52;0.80;;;19.20;96.60;19.60;100331.00;;;;4988868;27;112624;-67
2023/09/20 06:54:29;;;;;;;0.35;0.32;;;19.40;96.20;19.70;100336.00;;;;4987736;27;92754;-67
2023/09/20 06:57:02;;;;;;;1.17;0.20;;;19.60;95.90;19.90;100333.00;;;;4987375;27;93795;-67
2023/09/20 06:59:29;;;;;;;1.10;0.45;;;19.70;95.30;20.00;100338.00;;;;4983432;27;93110;-66
2023/09/20 07:01:55;;;;;;;1.20;0.40;;;19.90;95.00;20.20;100342.00;;;;4994476;27;93036;-67
2023/09/20 07:04:21;;;;;;;2.28;0.68;;;20.00;94.60;20.40;100325.00;;;;4981638;27;92979;-67
2023/09/20 07:06:47;;;;;;;0.30;0.25;;;20.20;93.80;20.50;100340.00;;;;4990528;27;92752;-66
2023/09/20 07:09:13;;;;;;;0.47;0.47;;;20.40;93.30;20.60;100334.00;;;;4987223;27;107933;-69
2023/09/20 07:11:38;;;;;;;18.10;3.58;;;20.40;93.10;20.70;100343.00;;;;4990760;27;93208;-68
2023/09/20 07:14:05;;;;;;;5.50;2.15;;;20.50;92.80;20.70;100335.00;;;;4980244;27;102101;-67
2023/09/20 07:16:33;;;;;;;10.35;1.25;;;20.60;92.70;20.80;100335.00;;;;4984290;28;93006;-68
2023/09/20 07:19:04;;;;;;;1.08;0.77;;;20.70;92.30;21.00;100338.00;;;;4991003;27;92916;-66
2023/09/20 07:21:29;;;;;;;1.75;0.43;;;20.80;92.10;21.20;100333.00;;;;4989212;27;94525;-65
2023/09/20 07:23:59;;;;;;;0.98;0.63;;;21.00;92.00;21.40;100342.00;;;;4990907;27;103193;-67
2023/09/20 07:26:25;;;;;;;0.60;0.38;;;21.20;91.70;21.70;100342.00;;;;4991722;27;93054;-67
2023/09/20 07:28:51;;;;;;;1.55;0.80;;;21.40;91.10;21.90;100347.00;;;;4971115;28;93165;-67
2023/09/20 07:31:20;;;;;;;2.40;0.57;;;21.70;90.10;22.00;100339.00;;;;4989543;27;122356;-66
2023/09/20 07:33:46;;;;;;;0.47;0.45;;;21.80;90.00;22.30;100348.00;;;;4992532;27;93533;-67
2023/09/20 07:36:12;;;;;;;2.15;0.40;;;22.10;89.20;22.50;100341.00;;;;4988399;27;92987;-67
2023/09/20 07:38:37;;;;;;;1.40;0.60;;;22.30;88.30;22.80;100339.00;;;;4988279;27;107470;-66
2023/09/20 07:41:13;;;;;;;0.70;0.50;;;22.50;86.80;23.00;100356.00;;;;4972850;28;121705;-66
2023/09/20 07:43:41;;;;;;;0.63;0.60;;;22.80;86.10;23.30;100357.00;;;;4981893;27;93064;-67
2023/09/20 07:46:07;;;;;;;0.35;0.28;;;23.00;84.30;23.30;100357.00;;;;4993031;27;94256;-67
2023/09/20 07:48:34;;;;;;;1.42;0.90;;;23.10;82.30;23.20;100356.00;;;;4973056;27;92906;-68
2023/09/20 07:51:04;;;;;;;0.40;0.30;;;23.10;81.70;23.20;100353.00;;;;4988683;27;93281;-67
2023/09/20 07:53:30;;;;;;;0.63;0.43;;;23.10;81.40;23.20;100357.00;;;;4975838;28;94223;-67
2023/09/20 07:56:05;;;;;;;1.88;0.60;;;23.00;81.60;23.10;100347.00;;;;4975930;27;92800;-67
2023/09/20 07:58:36;;;;;;;0.57;0.30;;;23.00;81.60;23.10;100348.00;;;;4973568;28;93016;-68
2023/09/20 08:01:10;;;;;;;0.70;0.60;;;22.90;81.00;23.00;100348.00;;;;4978771;27;93072;-67
2023/09/20 08:03:36;;;;;;;0.70;0.63;;;22.90;81.00;23.10;100350.00;;;;4986391;28;92343;-67
2023/09/20 08:06:08;;;;;;;2.72;0.75;;;22.90;81.50;23.20;100348.00;;;;4985026;27;93270;-66
2023/09/20 08:08:35;;;;;;;1.55;0.63;;;23.00;80.90;23.20;100354.00;;;;4992778;27;92944;-67
2023/09/20 08:11:01;;;;;;;2.22;0.70;;;23.00;80.00;23.30;100350.00;;;;4990750;28;94383;-68
2023/09/20 08:13:27;;;;;;;0.30;0.30;;;23.10;80.00;23.30;100347.00;;;;4994266;27;122628;-66
2023/09/20 08:15:52;;;;;;;0.82;0.40;;;23.20;79.80;23.40;100358.00;;;;4991506;27;111080;-66
2023/09/20 08:21:05;;;;;;;1.15;0.60;;;23.40;80.00;23.70;100351.00;;;;4989209;27;92954;-67
2023/09/20 09:02:15;;;;;;;1.10;0.57;;;22.60;79.40;22.80;100348.00;;;;4993206;27;92906;-66
2023/09/20 09:04:54;;;;;;;1.17;0.40;;;22.60;79.10;22.90;100348.00;;;;4990697;27;96518;-66
2023/09/20 09:07:24;;;;;;;1.30;0.68;;;22.60;78.90;22.90;100348.00;;;;4987793;27;93012;-68
2023/09/20 09:09:51;;;;;;;1.02;0.55;;;22.70;79.00;23.10;100340.00;;;;4990228;27;92914;-67
2023/09/20 09:12:18;;;;;;;0.40;0.38;;;22.80;78.90;23.20;100352.00;;;;4988704;27;92930;-67
2023/09/20 09:14:44;;;;;;;1.50;0.65;;;22.90;78.80;23.20;100340.00;;;;4990644;27;93432;-67
2023/09/20 09:17:10;;;;;;;0.65;0.43;;;23.00;78.40;23.30;100339.00;;;;4985579;27;93772;-67
2023/09/20 09:19:40;;;;;;;0.82;0.45;;;23.10;79.00;23.40;100339.00;;;;4989361;27;93253;-66
2023/09/20 09:22:06;;;;;;;1.38;0.60;;;23.20;77.80;23.60;100331.00;;;;4988083;27;92354;-67
2023/09/20 09:24:43;;;;;;;0.60;0.57;;;23.30;77.80;23.70;100330.00;;;;4990896;27;93201;-67
2023/09/20 09:27:14;;;;;;;0.50;0.35;;;23.40;77.20;23.80;100332.00;;;;4987036;28;93396;-67
2023/09/20 09:29:42;;;;;;;0.80;0.40;;;23.50;76.50;23.80;100315.00;;;;4988377;28;93707;-67
2023/09/20 09:32:08;;;;;;;1.35;0.50;;;23.60;75.80;23.90;100314.00;;;;4987888;28;93205;-67
2023/09/20 09:34:34;;;;;;;2.28;0.50;;;23.60;75.90;23.90;100312.00;;;;4985395;27;94630;-66
2023/09/20 09:36:59;;;;;;;0.50;0.40;;;23.70;75.60;24.00;100313.00;;;;4971571;28;93827;-67
2023/09/20 09:39:25;;;;;;;0.35;0.35;;;23.70;74.90;24.20;100300.00;;;;4989869;27;93463;-67
2023/09/20 09:41:52;;;;;;;1.33;0.88;;;23.90;75.20;24.50;100302.00;;;;4969127;27;92855;-66
2023/09/20 09:44:19;;;;;;;0.30;0.30;;;24.10;74.90;24.90;100296.00;;;;4990044;27;94192;-67
2023/09/20 09:46:44;;;;;;;1.08;0.65;;;24.50;74.70;25.40;100292.00;;;;4975491;27;93807;-68
2023/09/20 09:49:12;;;;;;;2.55;0.82;;;25.00;73.20;25.90;100298.00;;;;4985696;27;110678;-68
2023/09/20 09:52:04;;;;;;;0.28;0.22;;;25.40;72.20;26.60;100292.00;;;;4985449;27;93367;-67
2023/09/20 09:54:32;;;;;;;0.75;0.45;;;26.00;71.40;27.20;100293.00;;;;4979801;27;94026;-67
2023/09/20 09:56:57;;;;;;;0.80;0.60;;;26.60;70.00;27.90;100290.00;;;;4989016;27;123906;-70
2023/09/20 09:59:23;;;;;;;1.85;0.77;;;27.20;66.80;28.30;100297.00;;;;4989056;28;107318;-69
2023/09/20 10:01:50;;;;;;;1.25;0.50;;;27.70;63.30;28.40;100290.00;;;;4972222;28;93241;-70
2023/09/20 10:04:19;;;;;;;0.68;0.50;;;27.90;61.10;28.30;100272.00;;;;4993219;27;93829;-69
2023/09/20 10:07:05;;;;;;;1.00;0.50;;;27.80;61.50;28.60;100280.00;;;;4986980;27;122765;-69
2023/09/20 10:09:38;;;;;;;2.55;0.40;;;28.10;62.10;28.80;100274.00;;;;4975843;28;92922;-70
2023/09/20 10:12:04;;;;;;;0.38;0.38;;;28.30;59.40;28.90;100278.00;;;;4968150;28;92258;-70
2023/09/20 10:14:30;;;;;;;2.67;0.70;;;28.40;57.80;28.70;100272.00;;;;4965851;28;123051;-71
2023/09/20 10:16:56;;;;;;;0.75;0.40;;;28.40;56.10;28.50;100279.00;;;;4989599;27;93044;-70
2023/09/20 10:19:23;;;;;;;0.47;0.38;;;28.20;55.90;28.30;100285.00;;;;4988227;27;110697;-69
2023/09/20 10:22:10;;;;;;;3.65;0.70;;;28.00;55.70;28.10;100268.00;;;;4988624;27;93193;-70
2023/09/20 10:25:01;;;;;;;0.68;0.43;;;27.80;55.80;28.10;100268.00;;;;4966785;28;93183;-70
2023/09/20 10:27:34;;;;;;;1.05;0.93;;;27.70;56.10;28.10;100264.00;;;;4959606;28;93006;-70
2023/09/20 10:30:10;;;;;;;1.42;0.30;;;27.80;56.40;28.10;100271.00;;;;4970091;28;92847;-70
2023/09/20 10:32:54;;;;;;;0.20;0.10;;;27.80;56.10;28.00;100267.00;;;;4958328;28;92927;-71
2023/09/20 10:35:33;;;;;;;2.03;0.52;;;27.70;55.80;28.00;100275.00;;;;4944049;28;94882;-69
2023/09/20 10:38:05;;;;;;;0.32;0.32;;;27.70;55.90;27.80;100279.00;;;;4967020;28;93229;-71
2023/09/20 10:40:46;;;;;;;1.35;0.50;;;27.50;55.30;27.90;100263.00;;;;4971627;28;93012;-70
2023/09/20 10:43:15;;;;;;;0.55;0.47;;;27.60;55.70;28.10;100259.00;;;;4974603;28;92803;-69
2023/09/20 10:45:49;;;;;;;0.40;0.20;;;27.70;55.60;28.20;100256.00;;;;4979551;28;94226;-70
2023/09/20 10:48:18;;;;;;;2.17;0.68;;;27.80;55.60;28.30;100255.00;;;;4972569;28;112490;-68
2023/09/20 10:50:54;;;;;;;0.68;0.40;;;27.90;54.80;28.40;100257.00;;;;4966433;28;93194;-69
2023/09/20 10:53:22;;;;;;;0.30;0.30;;;27.90;54.20;28.40;100254.00;;;;4965825;27;93339;-69
2023/09/20 10:55:51;;;;;;;0.40;0.40;;;28.00;53.90;28.50;100252.00;;;;4976345;28;94062;-70
2023/09/20 10:58:23;;;;;;;0.20;0.20;;;28.10;54.00;28.80;100262.00;;;;4957485;28;94357;-70
2023/09/20 11:00:50;;;;;;;1.58;0.85;;;28.30;54.10;29.10;100264.00;;;;4978966;28;94376;-69
2023/09/20 11:03:18;;;;;;;1.60;0.30;;;28.60;53.70;29.30;100252.00;;;;4974054;28;92426;-70
2023/09/20 11:05:44;;;;;;;0.75;0.30;;;28.80;52.70;29.40;100258.00;;;;4977804;28;93720;-71
2023/09/20 11:08:13;;;;;;;0.73;0.73;;;29.00;51.50;29.30;100260.00;;;;4974915;28;121551;-69
2023/09/20 11:10:40;;;;;;;0.75;0.47;;;28.90;51.10;29.00;100258.00;;;;4980429;28;93882;-72
2023/09/20 11:13:08;;;;;;;0.30;0.30;;;28.80;51.20;28.90;100250.00;;;;4959855;28;92937;-69
2023/09/20 11:15:41;;;;;;;1.63;0.80;;;28.60;51.30;28.90;100246.00;;;;4958568;28;93684;-70
2023/09/20 11:18:08;;;;;;;2.17;0.43;;;28.60;51.90;29.00;100242.00;;;;4977429;28;93510;-71
2023/09/20 11:20:34;;;;;;;0.38;0.30;;;28.70;51.50;29.20;100243.00;;;;4977708;28;94099;-69
2023/09/20 11:23:02;;;;;;;0.50;0.22;;;28.80;51.50;29.30;100247.00;;;;4961655;28;92932;-69
2023/09/20 11:25:31;;;;;;;0.20;0.20;;;28.90;51.40;29.60;100240.00;;;;4989620;27;93188;-70
2023/09/20 11:27:57;;;;;;;3.20;0.60;;;29.10;51.10;29.80;100245.00;;;;4990084;27;93331;-69
2023/09/20 11:30:27;;;;;;;0.50;0.28;;;29.30;50.20;29.80;100230.00;;;;4971442;28;109562;-71
2023/09/20 11:32:54;;;;;;;0.80;0.30;;;29.40;50.30;30.00;100230.00;;;;4973523;28;93202;-69